CheckWX is a tool to help pilots better visualize weather data.  It is not intended as a substitute for an official pre-flight weather briefing.

04:50:51 UTC

KPEA METAR
Pella Municipal Airport
Pella, Iowa, USA
Current

16 mins ago

KPEA 190435Z AUTO 30015G21KT 10SM CLR M17/M21 A3032 RMK AO2 T11671215
Observed
Jan-19 @ 04:35 UTC
Wind
  • 300° at 15 KTS
  • Gusting to 21 KTS
Visibility
10 SM
Flight Rules
VFR
Cloud Levels
  • Clear skies
Temperature
-17°C / 1°F
Dewpoint
-22°C / -8°F
Humidity
65%
Altimeter
30.32" Hg
Pressure
1026.72 hPa
Previous

36 mins ago

KPEA 190415Z AUTO 31017G24KT 10SM CLR M17/M21 A3032 RMK AO2 T11661213
Observed
Jan-19 @ 04:15 UTC
Wind
  • 310° at 17 KTS
  • Gusting to 24 KTS
Visibility
10 SM
Flight Rules
VFR
Cloud Levels
  • Clear skies
Temperature
-17°C / 1°F
Dewpoint
-21°C / -6°F
Humidity
71%
Altimeter
30.32" Hg
Pressure
1026.72 hPa
Previous

56 mins ago

KPEA 190355Z AUTO 31016G21KT 10SM CLR M16/M21 A3032 RMK AO2 T11631213
Observed
Jan-19 @ 03:55 UTC
Wind
  • 310° at 16 KTS
  • Gusting to 21 KTS
Visibility
10 SM
Flight Rules
VFR
Cloud Levels
  • Clear skies
Temperature
-16°C / 3°F
Dewpoint
-21°C / -6°F
Humidity
66%
Altimeter
30.32" Hg
Pressure
1026.72 hPa